sensor_id;sensor_type;location;lat;lon;timestamp;P1;durP1;ratioP1;P2;durP2;ratioP2
60504;SDS011;46348;0.000;0.000;2024-01-15T00:02:09;3.20;;;1.45;;
60504;SDS011;46348;0.000;0.000;2024-01-15T00:04:39;4.18;;;1.52;;
60504;SDS011;46348;0.000;0.000;2024-01-15T00:07:05;2.22;;;1.48;;
60504;SDS011;46348;0.000;0.000;2024-01-15T00:09:52;3.65;;;1.30;;
60504;SDS011;46348;0.000;0.000;2024-01-15T00:12:19;3.15;;;1.48;;
60504;SDS011;46348;0.000;0.000;2024-01-15T00:14:45;3.80;;;1.60;;
60504;SDS011;46348;0.000;0.000;2024-01-15T00:17:11;4.45;;;1.60;;
60504;SDS011;46348;0.000;0.000;2024-01-15T00:19:38;3.45;;;1.52;;
60504;SDS011;46348;0.000;0.000;2024-01-15T00:22:25;2.53;;;1.40;;
60504;SDS011;46348;0.000;0.000;2024-01-15T00:24:52;3.38;;;1.50;;
60504;SDS011;46348;0.000;0.000;2024-01-15T00:27:18;2.85;;;1.30;;
60504;SDS011;46348;0.000;0.000;2024-01-15T00:29:44;2.85;;;1.20;;
60504;SDS011;46348;0.000;0.000;2024-01-15T00:32:11;3.45;;;1.40;;
60504;SDS011;46348;0.000;0.000;2024-01-15T00:34:37;2.90;;;1.50;;
60504;SDS011;46348;0.000;0.000;2024-01-15T00:37:03;3.53;;;1.42;;
60504;SDS011;46348;0.000;0.000;2024-01-15T00:39:32;4.90;;;2.00;;
60504;SDS011;46348;0.000;0.000;2024-01-15T00:41:58;4.70;;;1.80;;
60504;SDS011;46348;0.000;0.000;2024-01-15T00:44:24;3.10;;;1.48;;
60504;SDS011;46348;0.000;0.000;2024-01-15T00:46:50;4.45;;;1.70;;
60504;SDS011;46348;0.000;0.000;2024-01-15T00:49:36;3.92;;;1.52;;
60504;SDS011;46348;0.000;0.000;2024-01-15T00:52:03;2.78;;;1.40;;
60504;SDS011;46348;0.000;0.000;2024-01-15T00:54:30;2.88;;;1.40;;
60504;SDS011;46348;0.000;0.000;2024-01-15T00:56:56;3.83;;;1.58;;
60504;SDS011;46348;0.000;0.000;2024-01-15T00:59:22;2.70;;;1.75;;
60504;SDS011;46348;0.000;0.000;2024-01-15T01:01:48;3.65;;;1.48;;
60504;SDS011;46348;0.000;0.000;2024-01-15T01:04:14;4.10;;;1.60;;
60504;SDS011;46348;0.000;0.000;2024-01-15T01:06:41;3.28;;;1.42;;
60504;SDS011;46348;0.000;0.000;2024-01-15T01:09:07;3.42;;;1.50;;
60504;SDS011;46348;0.000;0.000;2024-01-15T01:11:34;3.78;;;1.50;;
60504;SDS011;46348;0.000;0.000;2024-01-15T01:14:01;2.70;;;1.25;;
60504;SDS011;46348;0.000;0.000;2024-01-15T01:16:28;4.55;;;1.77;;
60504;SDS011;46348;0.000;0.000;2024-01-15T01:18:56;3.33;;;1.65;;
60504;SDS011;46348;0.000;0.000;2024-01-15T01:21:23;2.55;;;1.27;;
60504;SDS011;46348;0.000;0.000;2024-01-15T01:23:50;4.45;;;1.60;;
60504;SDS011;46348;0.000;0.000;2024-01-15T01:26:16;3.80;;;1.60;;
60504;SDS011;46348;0.000;0.000;2024-01-15T01:28:43;4.28;;;2.03;;
60504;SDS011;46348;0.000;0.000;2024-01-15T01:31:09;3.58;;;1.63;;
60504;SDS011;46348;0.000;0.000;2024-01-15T01:33:37;3.25;;;1.50;;
60504;SDS011;46348;0.000;0.000;2024-01-15T01:36:08;4.63;;;1.55;;
60504;SDS011;46348;0.000;0.000;2024-01-15T01:38:35;3.67;;;1.60;;
60504;SDS011;46348;0.000;0.000;2024-01-15T01:41:01;3.20;;;1.50;;
60504;SDS011;46348;0.000;0.000;2024-01-15T01:43:28;5.65;;;1.90;;
60504;SDS011;46348;0.000;0.000;2024-01-15T01:45:55;4.75;;;1.90;;
60504;SDS011;46348;0.000;0.000;2024-01-15T01:48:23;3.72;;;1.60;;
60504;SDS011;46348;0.000;0.000;2024-01-15T01:50:50;3.67;;;1.83;;
60504;SDS011;46348;0.000;0.000;2024-01-15T01:53:17;4.45;;;1.88;;
60504;SDS011;46348;0.000;0.000;2024-01-15T01:55:43;4.80;;;1.60;;
60504;SDS011;46348;0.000;0.000;2024-01-15T01:58:09;5.70;;;1.70;;
60504;SDS011;46348;0.000;0.000;2024-01-15T02:00:55;4.90;;;1.73;;
60504;SDS011;46348;0.000;0.000;2024-01-15T02:03:21;5.28;;;1.70;;
60504;SDS011;46348;0.000;0.000;2024-01-15T02:05:48;3.47;;;1.98;;
60504;SDS011;46348;0.000;0.000;2024-01-15T02:08:15;5.55;;;1.88;;
60504;SDS011;46348;0.000;0.000;2024-01-15T02:10:41;4.10;;;1.70;;
60504;SDS011;46348;0.000;0.000;2024-01-15T02:13:08;4.40;;;1.60;;
60504;SDS011;46348;0.000;0.000;2024-01-15T02:15:35;4.20;;;1.42;;
60504;SDS011;46348;0.000;0.000;2024-01-15T02:18:03;4.60;;;1.80;;
60504;SDS011;46348;0.000;0.000;2024-01-15T02:20:30;4.75;;;1.83;;
60504;SDS011;46348;0.000;0.000;2024-01-15T02:25:29;3.90;;;1.60;;
60504;SDS011;46348;0.000;0.000;2024-01-15T02:27:55;3.47;;;1.48;;
60504;SDS011;46348;0.000;0.000;2024-01-15T02:30:21;3.88;;;1.63;;
60504;SDS011;46348;0.000;0.000;2024-01-15T02:32:48;3.13;;;1.55;;
60504;SDS011;46348;0.000;0.000;2024-01-15T02:35:14;2.60;;;1.42;;
60504;SDS011;46348;0.000;0.000;2024-01-15T02:38:01;5.68;;;1.70;;
60504;SDS011;46348;0.000;0.000;2024-01-15T02:40:27;4.15;;;1.60;;
60504;SDS011;46348;0.000;0.000;2024-01-15T02:42:53;4.10;;;1.55;;
60504;SDS011;46348;0.000;0.000;2024-01-15T02:45:20;4.28;;;1.40;;
60504;SDS011;46348;0.000;0.000;2024-01-15T02:47:46;3.53;;;1.52;;
60504;SDS011;46348;0.000;0.000;2024-01-15T02:50:12;2.80;;;1.40;;
60504;SDS011;46348;0.000;0.000;2024-01-15T02:52:39;4.22;;;1.77;;
60504;SDS011;46348;0.000;0.000;2024-01-15T02:55:08;2.80;;;1.60;;
60504;SDS011;46348;0.000;0.000;2024-01-15T02:57:34;3.72;;;1.50;;
60504;SDS011;46348;0.000;0.000;2024-01-15T03:00:01;2.78;;;1.30;;
60504;SDS011;46348;0.000;0.000;2024-01-15T03:02:28;3.40;;;1.52;;
60504;SDS011;46348;0.000;0.000;2024-01-15T03:04:57;2.28;;;1.23;;
60504;SDS011;46348;0.000;0.000;2024-01-15T03:07:23;4.18;;;1.40;;
60504;SDS011;46348;0.000;0.000;2024-01-15T03:09:49;3.53;;;1.50;;
60504;SDS011;46348;0.000;0.000;2024-01-15T03:12:36;3.20;;;1.38;;
60504;SDS011;46348;0.000;0.000;2024-01-15T03:15:02;3.17;;;1.40;;
60504;SDS011;46348;0.000;0.000;2024-01-15T03:17:30;3.03;;;1.30;;
60504;SDS011;46348;0.000;0.000;2024-01-15T03:19:56;3.58;;;1.30;;
60504;SDS011;46348;0.000;0.000;2024-01-15T03:22:22;3.25;;;1.33;;
60504;SDS011;46348;0.000;0.000;2024-01-15T03:24:48;2.78;;;1.23;;
60504;SDS011;46348;0.000;0.000;2024-01-15T03:27:14;3.05;;;1.38;;
60504;SDS011;46348;0.000;0.000;2024-01-15T03:29:41;3.95;;;1.60;;
60504;SDS011;46348;0.000;0.000;2024-01-15T03:32:27;4.63;;;1.52;;
60504;SDS011;46348;0.000;0.000;2024-01-15T03:35:13;3.72;;;1.58;;
60504;SDS011;46348;0.000;0.000;2024-01-15T03:37:39;3.72;;;1.55;;
60504;SDS011;46348;0.000;0.000;2024-01-15T03:40:06;3.65;;;1.73;;
60504;SDS011;46348;0.000;0.000;2024-01-15T03:42:32;5.47;;;1.35;;
60504;SDS011;46348;0.000;0.000;2024-01-15T03:44:59;3.80;;;1.45;;
60504;SDS011;46348;0.000;0.000;2024-01-15T03:47:26;4.20;;;1.50;;
60504;SDS011;46348;0.000;0.000;2024-01-15T03:49:52;4.43;;;1.58;;
60504;SDS011;46348;0.000;0.000;2024-01-15T03:52:18;4.47;;;1.45;;
60504;SDS011;46348;0.000;0.000;2024-01-15T03:54:44;3.28;;;1.63;;
60504;SDS011;46348;0.000;0.000;2024-01-15T03:57:10;3.75;;;1.40;;
60504;SDS011;46348;0.000;0.000;2024-01-15T03:59:56;3.72;;;1.65;;
60504;SDS011;46348;0.000;0.000;2024-01-15T04:02:22;2.33;;;1.30;;
60504;SDS011;46348;0.000;0.000;2024-01-15T04:04:49;2.17;;;1.17;;
60504;SDS011;46348;0.000;0.000;2024-01-15T04:07:15;3.28;;;1.40;;
60504;SDS011;46348;0.000;0.000;2024-01-15T04:09:41;3.70;;;1.40;;
60504;SDS011;46348;0.000;0.000;2024-01-15T04:12:27;4.30;;;1.60;;
60504;SDS011;46348;0.000;0.000;2024-01-15T04:14:53;3.05;;;1.13;;
60504;SDS011;46348;0.000;0.000;2024-01-15T04:17:19;3.63;;;1.70;;
60504;SDS011;46348;0.000;0.000;2024-01-15T04:19:47;3.45;;;1.40;;
60504;SDS011;46348;0.000;0.000;2024-01-15T04:22:14;2.55;;;1.30;;
60504;SDS011;46348;0.000;0.000;2024-01-15T04:24:40;3.30;;;1.45;;
60504;SDS011;46348;0.000;0.000;2024-01-15T04:27:06;4.30;;;1.60;;
60504;SDS011;46348;0.000;0.000;2024-01-15T04:29:33;3.70;;;1.65;;
60504;SDS011;46348;0.000;0.000;2024-01-15T04:32:00;3.33;;;1.70;;
60504;SDS011;46348;0.000;0.000;2024-01-15T04:34:26;3.33;;;1.42;;
60504;SDS011;46348;0.000;0.000;2024-01-15T04:36:53;4.15;;;1.60;;
60504;SDS011;46348;0.000;0.000;2024-01-15T04:39:19;3.60;;;1.70;;
60504;SDS011;46348;0.000;0.000;2024-01-15T04:41:45;2.95;;;1.40;;
60504;SDS011;46348;0.000;0.000;2024-01-15T04:44:12;3.38;;;1.60;;
60504;SDS011;46348;0.000;0.000;2024-01-15T04:46:41;3.78;;;1.60;;
60504;SDS011;46348;0.000;0.000;2024-01-15T04:49:09;2.92;;;1.63;;
60504;SDS011;46348;0.000;0.000;2024-01-15T04:51:35;3.05;;;1.38;;
60504;SDS011;46348;0.000;0.000;2024-01-15T04:54:02;3.10;;;1.55;;
60504;SDS011;46348;0.000;0.000;2024-01-15T04:56:31;3.78;;;1.67;;
60504;SDS011;46348;0.000;0.000;2024-01-15T04:59:00;4.00;;;1.73;;
60504;SDS011;46348;0.000;0.000;2024-01-15T05:01:30;4.13;;;1.58;;
60504;SDS011;46348;0.000;0.000;2024-01-15T05:03:56;3.95;;;1.60;;
60504;SDS011;46348;0.000;0.000;2024-01-15T05:06:23;4.75;;;1.67;;
60504;SDS011;46348;0.000;0.000;2024-01-15T05:09:09;3.75;;;1.65;;
60504;SDS011;46348;0.000;0.000;2024-01-15T05:11:35;5.25;;;1.90;;
60504;SDS011;46348;0.000;0.000;2024-01-15T05:14:02;3.97;;;1.60;;
60504;SDS011;46348;0.000;0.000;2024-01-15T05:16:28;3.83;;;1.67;;
60504;SDS011;46348;0.000;0.000;2024-01-15T05:18:54;3.38;;;1.60;;
60504;SDS011;46348;0.000;0.000;2024-01-15T05:21:21;4.00;;;1.65;;
60504;SDS011;46348;0.000;0.000;2024-01-15T05:23:48;4.45;;;1.83;;
60504;SDS011;46348;0.000;0.000;2024-01-15T05:26:14;3.10;;;1.42;;
60504;SDS011;46348;0.000;0.000;2024-01-15T05:29:00;5.20;;;1.98;;
60504;SDS011;46348;0.000;0.000;2024-01-15T05:31:26;4.28;;;1.88;;
60504;SDS011;46348;0.000;0.000;2024-01-15T05:33:52;3.40;;;1.58;;
60504;SDS011;46348;0.000;0.000;2024-01-15T05:36:18;4.60;;;1.60;;
60504;SDS011;46348;0.000;0.000;2024-01-15T05:38:44;4.03;;;1.85;;
60504;SDS011;46348;0.000;0.000;2024-01-15T05:41:11;3.50;;;1.45;;
60504;SDS011;46348;0.000;0.000;2024-01-15T05:43:38;4.10;;;1.70;;
60504;SDS011;46348;0.000;0.000;2024-01-15T05:46:04;3.65;;;1.60;;
60504;SDS011;46348;0.000;0.000;2024-01-15T05:48:30;2.47;;;1.50;;
60504;SDS011;46348;0.000;0.000;2024-01-15T05:50:56;3.00;;;1.52;;
60504;SDS011;46348;0.000;0.000;2024-01-15T05:53:22;3.40;;;1.40;;
60504;SDS011;46348;0.000;0.000;2024-01-15T05:55:48;2.28;;;1.60;;
60504;SDS011;46348;0.000;0.000;2024-01-15T05:58:14;3.85;;;1.50;;
60504;SDS011;46348;0.000;0.000;2024-01-15T06:00:41;2.90;;;1.40;;
60504;SDS011;46348;0.000;0.000;2024-01-15T06:03:07;4.45;;;1.65;;
60504;SDS011;46348;0.000;0.000;2024-01-15T06:05:33;3.05;;;1.35;;
60504;SDS011;46348;0.000;0.000;2024-01-15T06:07:59;2.78;;;1.10;;
60504;SDS011;46348;0.000;0.000;2024-01-15T06:10:25;3.80;;;1.45;;
60504;SDS011;46348;0.000;0.000;2024-01-15T06:12:51;3.08;;;1.33;;
60504;SDS011;46348;0.000;0.000;2024-01-15T06:15:17;2.33;;;1.20;;
60504;SDS011;46348;0.000;0.000;2024-01-15T06:17:43;2.60;;;1.27;;
60504;SDS011;46348;0.000;0.000;2024-01-15T06:20:10;2.63;;;1.30;;
60504;SDS011;46348;0.000;0.000;2024-01-15T06:22:37;3.97;;;1.40;;
60504;SDS011;46348;0.000;0.000;2024-01-15T06:25:06;3.10;;;1.35;;
60504;SDS011;46348;0.000;0.000;2024-01-15T06:27:32;3.42;;;1.27;;
60504;SDS011;46348;0.000;0.000;2024-01-15T06:29:58;2.38;;;1.50;;
60504;SDS011;46348;0.000;0.000;2024-01-15T06:32:24;3.28;;;1.40;;
60504;SDS011;46348;0.000;0.000;2024-01-15T06:34:50;2.08;;;1.17;;
60504;SDS011;46348;0.000;0.000;2024-01-15T06:37:16;2.55;;;1.38;;
60504;SDS011;46348;0.000;0.000;2024-01-15T06:39:45;3.53;;;1.13;;
60504;SDS011;46348;0.000;0.000;2024-01-15T06:42:11;1.88;;;1.02;;
60504;SDS011;46348;0.000;0.000;2024-01-15T06:44:37;4.05;;;1.30;;
60504;SDS011;46348;0.000;0.000;2024-01-15T06:47:04;3.00;;;1.40;;
60504;SDS011;46348;0.000;0.000;2024-01-15T06:49:30;2.35;;;1.10;;
60504;SDS011;46348;0.000;0.000;2024-01-15T06:51:56;3.05;;;1.00;;
60504;SDS011;46348;0.000;0.000;2024-01-15T06:54:22;3.85;;;1.30;;
60504;SDS011;46348;0.000;0.000;2024-01-15T06:56:49;2.63;;;1.15;;
60504;SDS011;46348;0.000;0.000;2024-01-15T06:59:15;4.55;;;1.20;;
60504;SDS011;46348;0.000;0.000;2024-01-15T07:01:41;3.90;;;1.17;;
60504;SDS011;46348;0.000;0.000;2024-01-15T07:04:08;2.78;;;1.30;;
60504;SDS011;46348;0.000;0.000;2024-01-15T07:06:34;3.80;;;1.27;;
60504;SDS011;46348;0.000;0.000;2024-01-15T07:09:00;1.92;;;1.00;;
60504;SDS011;46348;0.000;0.000;2024-01-15T07:11:26;3.67;;;1.38;;
60504;SDS011;46348;0.000;0.000;2024-01-15T07:13:52;3.00;;;1.35;;
60504;SDS011;46348;0.000;0.000;2024-01-15T07:16:38;4.18;;;1.27;;
60504;SDS011;46348;0.000;0.000;2024-01-15T07:19:04;5.38;;;1.27;;
60504;SDS011;46348;0.000;0.000;2024-01-15T07:21:31;5.20;;;1.40;;
60504;SDS011;46348;0.000;0.000;2024-01-15T07:24:21;3.70;;;1.30;;
60504;SDS011;46348;0.000;0.000;2024-01-15T07:26:47;6.30;;;1.33;;
60504;SDS011;46348;0.000;0.000;2024-01-15T07:29:14;2.85;;;1.45;;
60504;SDS011;46348;0.000;0.000;2024-01-15T07:31:40;4.93;;;1.30;;
60504;SDS011;46348;0.000;0.000;2024-01-15T07:34:06;5.22;;;1.40;;
60504;SDS011;46348;0.000;0.000;2024-01-15T07:36:32;5.22;;;1.30;;
60504;SDS011;46348;0.000;0.000;2024-01-15T07:38:58;7.20;;;1.40;;
60504;SDS011;46348;0.000;0.000;2024-01-15T07:41:27;7.60;;;1.20;;
60504;SDS011;46348;0.000;0.000;2024-01-15T07:43:54;2.55;;;0.90;;
60504;SDS011;46348;0.000;0.000;2024-01-15T07:46:20;3.35;;;1.40;;
60504;SDS011;46348;0.000;0.000;2024-01-15T07:48:46;3.80;;;1.17;;
60504;SDS011;46348;0.000;0.000;2024-01-15T07:51:12;3.42;;;1.55;;
60504;SDS011;46348;0.000;0.000;2024-01-15T07:53:38;3.20;;;1.15;;
60504;SDS011;46348;0.000;0.000;2024-01-15T07:56:05;3.65;;;1.30;;
60504;SDS011;46348;0.000;0.000;2024-01-15T07:58:31;3.38;;;1.27;;
60504;SDS011;46348;0.000;0.000;2024-01-15T08:00:57;5.50;;;1.40;;
60504;SDS011;46348;0.000;0.000;2024-01-15T08:03:23;2.90;;;1.05;;
60504;SDS011;46348;0.000;0.000;2024-01-15T08:05:49;4.05;;;1.20;;
60504;SDS011;46348;0.000;0.000;2024-01-15T08:08:38;2.83;;;1.10;;
60504;SDS011;46348;0.000;0.000;2024-01-15T08:11:24;3.80;;;1.10;;
60504;SDS011;46348;0.000;0.000;2024-01-15T08:13:50;2.20;;;1.10;;
60504;SDS011;46348;0.000;0.000;2024-01-15T08:16:17;4.75;;;1.00;;
60504;SDS011;46348;0.000;0.000;2024-01-15T08:18:43;4.55;;;1.15;;
60504;SDS011;46348;0.000;0.000;2024-01-15T08:21:10;5.80;;;1.20;;
60504;SDS011;46348;0.000;0.000;2024-01-15T08:23:36;2.40;;;0.98;;
60504;SDS011;46348;0.000;0.000;2024-01-15T08:26:06;8.25;;;1.38;;
60504;SDS011;46348;0.000;0.000;2024-01-15T08:28:32;2.88;;;1.00;;
60504;SDS011;46348;0.000;0.000;2024-01-15T08:30:58;5.07;;;1.20;;
60504;SDS011;46348;0.000;0.000;2024-01-15T08:33:24;4.82;;;1.20;;
60504;SDS011;46348;0.000;0.000;2024-01-15T08:35:51;3.28;;;1.15;;
60504;SDS011;46348;0.000;0.000;2024-01-15T08:38:18;2.83;;;1.00;;
60504;SDS011;46348;0.000;0.000;2024-01-15T08:40:44;3.65;;;1.00;;
60504;SDS011;46348;0.000;0.000;2024-01-15T08:43:11;2.35;;;0.93;;
60504;SDS011;46348;0.000;0.000;2024-01-15T08:45:37;5.25;;;1.15;;
60504;SDS011;46348;0.000;0.000;2024-01-15T08:48:03;3.33;;;1.10;;
60504;SDS011;46348;0.000;0.000;2024-01-15T08:50:30;4.35;;;1.20;;
60504;SDS011;46348;0.000;0.000;2024-01-15T08:52:57;2.58;;;1.17;;
60504;SDS011;46348;0.000;0.000;2024-01-15T08:55:23;2.45;;;0.98;;
60504;SDS011;46348;0.000;0.000;2024-01-15T08:57:58;2.67;;;1.33;;
60504;SDS011;46348;0.000;0.000;2024-01-15T09:00:24;1.98;;;0.98;;
60504;SDS011;46348;0.000;0.000;2024-01-15T09:02:51;4.28;;;1.38;;
60504;SDS011;46348;0.000;0.000;2024-01-15T09:05:17;3.55;;;1.30;;
60504;SDS011;46348;0.000;0.000;2024-01-15T09:07:43;3.17;;;1.20;;
60504;SDS011;46348;0.000;0.000;2024-01-15T09:10:13;5.75;;;1.17;;
60504;SDS011;46348;0.000;0.000;2024-01-15T09:12:39;2.85;;;1.20;;
60504;SDS011;46348;0.000;0.000;2024-01-15T09:15:06;5.25;;;1.27;;
60504;SDS011;46348;0.000;0.000;2024-01-15T09:17:33;2.38;;;0.77;;
60504;SDS011;46348;0.000;0.000;2024-01-15T09:20:19;5.55;;;1.42;;
60504;SDS011;46348;0.000;0.000;2024-01-15T09:22:45;4.32;;;1.15;;
60504;SDS011;46348;0.000;0.000;2024-01-15T09:25:12;3.53;;;1.20;;
60504;SDS011;46348;0.000;0.000;2024-01-15T09:27:39;3.03;;;1.20;;
60504;SDS011;46348;0.000;0.000;2024-01-15T09:30:06;3.83;;;1.17;;
60504;SDS011;46348;0.000;0.000;2024-01-15T09:32:33;2.25;;;1.10;;
60504;SDS011;46348;0.000;0.000;2024-01-15T09:34:59;4.70;;;1.30;;
60504;SDS011;46348;0.000;0.000;2024-01-15T09:37:25;5.57;;;0.90;;
60504;SDS011;46348;0.000;0.000;2024-01-15T09:39:51;4.15;;;1.33;;
60504;SDS011;46348;0.000;0.000;2024-01-15T09:42:19;2.13;;;0.93;;
60504;SDS011;46348;0.000;0.000;2024-01-15T09:44:45;3.67;;;1.20;;
60504;SDS011;46348;0.000;0.000;2024-01-15T09:47:32;3.40;;;0.90;;
60504;SDS011;46348;0.000;0.000;2024-01-15T09:49:58;3.17;;;1.15;;
60504;SDS011;46348;0.000;0.000;2024-01-15T09:52:25;4.68;;;1.10;;
60504;SDS011;46348;0.000;0.000;2024-01-15T09:55:11;2.53;;;1.02;;
60504;SDS011;46348;0.000;0.000;2024-01-15T09:57:38;2.30;;;0.90;;
60504;SDS011;46348;0.000;0.000;2024-01-15T10:00:05;2.55;;;1.02;;
60504;SDS011;46348;0.000;0.000;2024-01-15T10:02:31;2.95;;;1.05;;
60504;SDS011;46348;0.000;0.000;2024-01-15T10:04:58;3.85;;;1.15;;
60504;SDS011;46348;0.000;0.000;2024-01-15T10:07:24;3.88;;;1.20;;
60504;SDS011;46348;0.000;0.000;2024-01-15T10:09:51;4.05;;;1.30;;
60504;SDS011;46348;0.000;0.000;2024-01-15T10:12:17;3.45;;;0.90;;
60504;SDS011;46348;0.000;0.000;2024-01-15T10:14:43;2.90;;;1.05;;
60504;SDS011;46348;0.000;0.000;2024-01-15T10:17:13;2.55;;;0.93;;
60504;SDS011;46348;0.000;0.000;2024-01-15T10:20:00;2.85;;;1.02;;
60504;SDS011;46348;0.000;0.000;2024-01-15T10:22:26;2.85;;;0.80;;
60504;SDS011;46348;0.000;0.000;2024-01-15T10:24:53;2.78;;;0.90;;
60504;SDS011;46348;0.000;0.000;2024-01-15T10:27:19;2.83;;;1.00;;
60504;SDS011;46348;0.000;0.000;2024-01-15T10:29:46;4.30;;;1.13;;
60504;SDS011;46348;0.000;0.000;2024-01-15T10:32:12;2.08;;;0.90;;
60504;SDS011;46348;0.000;0.000;2024-01-15T10:34:39;4.85;;;1.10;;
60504;SDS011;46348;0.000;0.000;2024-01-15T10:37:06;3.03;;;0.88;;
60504;SDS011;46348;0.000;0.000;2024-01-15T10:39:33;3.25;;;0.95;;
60504;SDS011;46348;0.000;0.000;2024-01-15T10:42:19;2.08;;;0.80;;
60504;SDS011;46348;0.000;0.000;2024-01-15T10:44:46;3.22;;;1.05;;
60504;SDS011;46348;0.000;0.000;2024-01-15T10:47:12;2.65;;;1.15;;
60504;SDS011;46348;0.000;0.000;2024-01-15T10:49:38;3.15;;;0.95;;
60504;SDS011;46348;0.000;0.000;2024-01-15T10:52:05;3.80;;;0.90;;
60504;SDS011;46348;0.000;0.000;2024-01-15T10:54:51;3.17;;;1.13;;
60504;SDS011;46348;0.000;0.000;2024-01-15T10:57:17;7.00;;;1.20;;
60504;SDS011;46348;0.000;0.000;2024-01-15T11:00:04;2.67;;;0.80;;
60504;SDS011;46348;0.000;0.000;2024-01-15T11:02:34;2.63;;;0.93;;
60504;SDS011;46348;0.000;0.000;2024-01-15T11:05:01;2.67;;;1.00;;
60504;SDS011;46348;0.000;0.000;2024-01-15T11:07:33;1.77;;;0.82;;
60504;SDS011;46348;0.000;0.000;2024-01-15T11:10:02;3.47;;;1.00;;
60504;SDS011;46348;0.000;0.000;2024-01-15T11:12:29;2.35;;;0.93;;
60504;SDS011;46348;0.000;0.000;2024-01-15T11:15:01;1.60;;;0.80;;
60504;SDS011;46348;0.000;0.000;2024-01-15T11:17:30;2.20;;;0.73;;
60504;SDS011;46348;0.000;0.000;2024-01-15T11:20:35;2.47;;;0.90;;
60504;SDS011;46348;0.000;0.000;2024-01-15T11:23:01;2.70;;;0.80;;
60504;SDS011;46348;0.000;0.000;2024-01-15T11:25:34;3.00;;;1.08;;
60504;SDS011;46348;0.000;0.000;2024-01-15T11:28:03;1.58;;;0.90;;
60504;SDS011;46348;0.000;0.000;2024-01-15T11:30:30;1.98;;;0.73;;
60504;SDS011;46348;0.000;0.000;2024-01-15T11:33:01;3.33;;;0.98;;
60504;SDS011;46348;0.000;0.000;2024-01-15T11:35:42;3.40;;;1.08;;
60504;SDS011;46348;0.000;0.000;2024-01-15T11:38:26;2.15;;;0.70;;
60504;SDS011;46348;0.000;0.000;2024-01-15T11:40:53;1.48;;;0.70;;
60504;SDS011;46348;0.000;0.000;2024-01-15T11:43:19;3.08;;;0.90;;
60504;SDS011;46348;0.000;0.000;2024-01-15T11:45:48;3.13;;;1.00;;
60504;SDS011;46348;0.000;0.000;2024-01-15T11:48:18;2.67;;;1.00;;
60504;SDS011;46348;0.000;0.000;2024-01-15T11:50:47;4.60;;;0.85;;
60504;SDS011;46348;0.000;0.000;2024-01-15T11:53:27;4.28;;;1.08;;
60504;SDS011;46348;0.000;0.000;2024-01-15T11:55:54;2.35;;;0.90;;
60504;SDS011;46348;0.000;0.000;2024-01-15T11:58:26;3.90;;;1.00;;
60504;SDS011;46348;0.000;0.000;2024-01-15T12:00:52;3.90;;;0.90;;
60504;SDS011;46348;0.000;0.000;2024-01-15T12:03:20;1.92;;;0.93;;
60504;SDS011;46348;0.000;0.000;2024-01-15T12:05:46;3.95;;;0.90;;
60504;SDS011;46348;0.000;0.000;2024-01-15T12:08:12;1.95;;;0.82;;
60504;SDS011;46348;0.000;0.000;2024-01-15T12:10:41;3.75;;;1.15;;
60504;SDS011;46348;0.000;0.000;2024-01-15T12:13:12;4.07;;;0.90;;
60504;SDS011;46348;0.000;0.000;2024-01-15T12:15:38;2.58;;;1.05;;
60504;SDS011;46348;0.000;0.000;2024-01-15T12:18:08;3.95;;;1.00;;
60504;SDS011;46348;0.000;0.000;2024-01-15T12:20:34;2.63;;;0.85;;
60504;SDS011;46348;0.000;0.000;2024-01-15T12:23:01;2.50;;;0.93;;
60504;SDS011;46348;0.000;0.000;2024-01-15T12:25:28;2.83;;;1.15;;
60504;SDS011;46348;0.000;0.000;2024-01-15T12:27:55;2.42;;;0.80;;
60504;SDS011;46348;0.000;0.000;2024-01-15T12:30:21;2.90;;;0.70;;
60504;SDS011;46348;0.000;0.000;2024-01-15T12:32:48;3.33;;;0.73;;
60504;SDS011;46348;0.000;0.000;2024-01-15T12:35:14;4.35;;;0.95;;
60504;SDS011;46348;0.000;0.000;2024-01-15T12:37:41;5.50;;;1.00;;
60504;SDS011;46348;0.000;0.000;2024-01-15T12:40:08;2.67;;;0.95;;
60504;SDS011;46348;0.000;0.000;2024-01-15T12:42:44;3.80;;;0.77;;
60504;SDS011;46348;0.000;0.000;2024-01-15T12:45:11;2.47;;;0.80;;
60504;SDS011;46348;0.000;0.000;2024-01-15T12:47:41;4.93;;;0.93;;
60504;SDS011;46348;0.000;0.000;2024-01-15T12:50:10;3.30;;;1.00;;
60504;SDS011;46348;0.000;0.000;2024-01-15T12:52:37;3.53;;;1.17;;
60504;SDS011;46348;0.000;0.000;2024-01-15T12:55:04;4.47;;;1.08;;
60504;SDS011;46348;0.000;0.000;2024-01-15T12:57:36;4.20;;;0.90;;
60504;SDS011;46348;0.000;0.000;2024-01-15T13:00:03;5.28;;;1.00;;
60504;SDS011;46348;0.000;0.000;2024-01-15T13:02:36;2.00;;;0.90;;
60504;SDS011;46348;0.000;0.000;2024-01-15T13:05:03;3.40;;;0.73;;
60504;SDS011;46348;0.000;0.000;2024-01-15T13:07:29;5.00;;;1.05;;
60504;SDS011;46348;0.000;0.000;2024-01-15T13:09:56;5.57;;;1.00;;
60504;SDS011;46348;0.000;0.000;2024-01-15T13:12:25;3.38;;;1.00;;
60504;SDS011;46348;0.000;0.000;2024-01-15T13:14:51;2.78;;;0.82;;
60504;SDS011;46348;0.000;0.000;2024-01-15T13:17:17;4.50;;;1.13;;
60504;SDS011;46348;0.000;0.000;2024-01-15T13:19:44;1.88;;;0.60;;
60504;SDS011;46348;0.000;0.000;2024-01-15T13:22:10;3.10;;;0.90;;
60504;SDS011;46348;0.000;0.000;2024-01-15T13:24:39;2.90;;;0.70;;
60504;SDS011;46348;0.000;0.000;2024-01-15T13:27:05;6.15;;;1.08;;
60504;SDS011;46348;0.000;0.000;2024-01-15T13:29:32;2.55;;;0.80;;
60504;SDS011;46348;0.000;0.000;2024-01-15T13:31:59;3.50;;;1.00;;
60504;SDS011;46348;0.000;0.000;2024-01-15T13:34:26;2.83;;;1.13;;
60504;SDS011;46348;0.000;0.000;2024-01-15T13:36:52;5.03;;;1.05;;
60504;SDS011;46348;0.000;0.000;2024-01-15T13:39:18;3.55;;;0.90;;
60504;SDS011;46348;0.000;0.000;2024-01-15T13:41:46;2.35;;;1.05;;
60504;SDS011;46348;0.000;0.000;2024-01-15T13:44:12;3.80;;;0.93;;
60504;SDS011;46348;0.000;0.000;2024-01-15T13:46:38;3.30;;;0.77;;
60504;SDS011;46348;0.000;0.000;2024-01-15T13:49:04;3.38;;;0.85;;
60504;SDS011;46348;0.000;0.000;2024-01-15T13:51:36;2.42;;;0.60;;
60504;SDS011;46348;0.000;0.000;2024-01-15T13:54:03;3.45;;;1.10;;
60504;SDS011;46348;0.000;0.000;2024-01-15T13:56:29;1.83;;;0.85;;
60504;SDS011;46348;0.000;0.000;2024-01-15T13:58:58;1.63;;;0.90;;
60504;SDS011;46348;0.000;0.000;2024-01-15T14:01:24;2.92;;;0.80;;
60504;SDS011;46348;0.000;0.000;2024-01-15T14:03:52;2.67;;;0.70;;
60504;SDS011;46348;0.000;0.000;2024-01-15T14:06:18;3.47;;;1.02;;
60504;SDS011;46348;0.000;0.000;2024-01-15T14:08:45;3.58;;;0.90;;
60504;SDS011;46348;0.000;0.000;2024-01-15T14:11:12;2.33;;;0.80;;
60504;SDS011;46348;0.000;0.000;2024-01-15T14:13:38;1.67;;;0.82;;
60504;SDS011;46348;0.000;0.000;2024-01-15T14:16:04;1.38;;;0.68;;
60504;SDS011;46348;0.000;0.000;2024-01-15T14:18:32;2.50;;;0.90;;
60504;SDS011;46348;0.000;0.000;2024-01-15T14:20:59;3.95;;;0.82;;
60504;SDS011;46348;0.000;0.000;2024-01-15T14:23:25;3.03;;;0.80;;
60504;SDS011;46348;0.000;0.000;2024-01-15T14:25:51;4.20;;;0.80;;
60504;SDS011;46348;0.000;0.000;2024-01-15T14:28:17;2.92;;;0.88;;
60504;SDS011;46348;0.000;0.000;2024-01-15T14:30:43;1.58;;;0.90;;
60504;SDS011;46348;0.000;0.000;2024-01-15T14:33:09;3.67;;;1.00;;
60504;SDS011;46348;0.000;0.000;2024-01-15T14:35:36;2.10;;;0.90;;
60504;SDS011;46348;0.000;0.000;2024-01-15T14:38:03;2.22;;;0.65;;
60504;SDS011;46348;0.000;0.000;2024-01-15T14:40:29;1.08;;;0.52;;
60504;SDS011;46348;0.000;0.000;2024-01-15T14:42:55;2.75;;;0.80;;
60504;SDS011;46348;0.000;0.000;2024-01-15T14:45:21;3.25;;;1.05;;
60504;SDS011;46348;0.000;0.000;2024-01-15T14:47:48;2.65;;;0.70;;
60504;SDS011;46348;0.000;0.000;2024-01-15T14:50:14;3.28;;;0.82;;
60504;SDS011;46348;0.000;0.000;2024-01-15T14:52:40;2.35;;;0.80;;
60504;SDS011;46348;0.000;0.000;2024-01-15T14:55:07;1.95;;;0.77;;
60504;SDS011;46348;0.000;0.000;2024-01-15T14:57:37;4.18;;;0.80;;
60504;SDS011;46348;0.000;0.000;2024-01-15T15:00:04;1.48;;;0.60;;
60504;SDS011;46348;0.000;0.000;2024-01-15T15:02:32;1.77;;;0.60;;
60504;SDS011;46348;0.000;0.000;2024-01-15T15:05:00;5.30;;;0.98;;
60504;SDS011;46348;0.000;0.000;2024-01-15T15:07:46;3.33;;;1.00;;
60504;SDS011;46348;0.000;0.000;2024-01-15T15:10:12;3.33;;;1.10;;